Time;durP1;ratioP1;P1;durP2;ratioP2;P2;SDS_P1;SDS_P2;PMS_P1;PMS_P2;Temp;Humidity;BMP_temperature;BMP_pressure;BME280_temperature;BME280_humidity;BME280_pressure;Samples;Min_cycle;Max_cycle;Signal;HPM_P1;HPM_P2
2023/09/10 00:01:32;;;;;;;19.70;13.57;;;19.70;99.90;;;;;;5108189;28;20048;-60
2023/09/10 00:04:00;;;;;;;32.85;13.43;;;19.70;99.90;;;;;;5112748;27;20055;-60
2023/09/10 00:06:27;;;;;;;22.95;12.50;;;19.70;99.90;;;;;;5120816;27;20048;-60
2023/09/10 00:08:55;;;;;;;23.25;12.63;;;19.60;99.90;;;;;;5110126;28;20040;-60
2023/09/10 00:11:23;;;;;;;22.42;12.55;;;19.60;99.90;;;;;;5110547;27;20075;-60
2023/09/10 00:13:51;;;;;;;27.30;13.73;;;19.60;99.90;;;;;;5110413;28;20059;-60
2023/09/10 00:16:18;;;;;;;22.67;12.63;;;19.60;99.90;;;;;;5111991;28;20055;-60
2023/09/10 00:18:46;;;;;;;26.52;13.38;;;19.60;99.90;;;;;;5109531;28;20059;-60
2023/09/10 00:21:14;;;;;;;22.38;13.88;;;19.60;99.90;;;;;;5110312;28;20039;-60
2023/09/10 00:23:42;;;;;;;24.17;13.55;;;19.60;99.90;;;;;;5110946;28;20047;-60
2023/09/10 00:26:10;;;;;;;22.02;13.25;;;19.60;99.90;;;;;;5099844;27;20511;-60
2023/09/10 00:28:40;;;;;;;25.88;13.57;;;19.60;99.90;;;;;;5111447;28;20086;-60
2023/09/10 00:31:08;;;;;;;27.30;14.10;;;19.50;99.90;;;;;;5111665;28;20063;-60
2023/09/10 00:33:36;;;;;;;26.25;13.20;;;19.50;99.90;;;;;;5110716;28;20058;-60
2023/09/10 00:36:04;;;;;;;20.83;13.00;;;19.50;99.90;;;;;;5110358;28;20043;-60
2023/09/10 00:38:31;;;;;;;22.13;13.60;;;19.50;99.90;;;;;;5111694;28;20054;-60
2023/09/10 00:40:59;;;;;;;26.73;13.00;;;19.50;99.90;;;;;;5103250;27;20527;-60
2023/09/10 00:43:27;;;;;;;27.55;14.13;;;19.40;99.90;;;;;;5111088;28;20048;-60
2023/09/10 00:45:55;;;;;;;23.75;12.73;;;19.40;99.90;;;;;;5111259;28;20502;-60
2023/09/10 00:48:23;;;;;;;21.40;13.48;;;19.40;99.90;;;;;;5110893;28;20407;-61
2023/09/10 00:50:51;;;;;;;23.45;13.77;;;19.30;99.90;;;;;;5111158;28;20047;-60
2023/09/10 00:53:19;;;;;;;26.30;13.68;;;19.40;99.90;;;;;;5110020;28;20536;-60
2023/09/10 00:55:48;;;;;;;29.55;15.52;;;19.30;99.90;;;;;;5097490;27;20510;-60
2023/09/10 00:58:18;;;;;;;24.33;14.30;;;19.30;99.90;;;;;;5096576;28;20044;-60
2023/09/10 01:00:48;;;;;;;21.73;13.65;;;19.30;99.90;;;;;;5110359;28;20046;-61
2023/09/10 01:03:16;;;;;;;21.80;13.13;;;19.30;99.90;;;;;;5107029;28;20116;-60
2023/09/10 01:05:44;;;;;;;22.83;13.18;;;19.30;99.90;;;;;;5106743;28;20039;-60
2023/09/10 01:08:12;;;;;;;23.25;13.60;;;19.20;99.90;;;;;;5109052;28;20040;-60
2023/09/10 01:10:51;;;;;;;25.17;14.70;;;19.20;99.90;;;;;;5105588;27;20048;-60
2023/09/10 01:13:34;;;;;;;25.63;15.40;;;19.20;99.90;;;;;;5092414;28;20056;-60
2023/09/10 01:16:13;;;;;;;26.25;13.63;;;19.20;99.90;;;;;;5092424;28;20388;-60
2023/09/10 01:18:49;;;;;;;22.77;14.55;;;19.20;99.90;;;;;;5109422;28;20068;-60
2023/09/10 01:21:50;;;;;;;24.30;14.70;;;19.10;99.90;;;;;;5099307;28;20046;-60
2023/09/10 01:24:47;;;;;;;25.55;14.75;;;19.10;99.90;;;;;;5099217;27;20054;-60
2023/09/10 01:27:15;;;;;;;24.48;15.30;;;19.10;99.90;;;;;;5098821;27;20031;-60
2023/09/10 01:29:43;;;;;;;27.48;14.60;;;19.10;99.90;;;;;;5109935;28;20047;-60
2023/09/10 01:32:26;;;;;;;29.20;15.05;;;19.10;99.90;;;;;;5108860;27;20281;-60
2023/09/10 01:35:07;;;;;;;19.77;14.13;;;19.00;99.90;;;;;;5108474;28;20051;-59
2023/09/10 01:37:47;;;;;;;23.85;13.95;;;19.00;99.90;;;;;;5112623;28;20047;-60
2023/09/10 01:40:20;;;;;;;22.73;13.80;;;19.00;99.90;;;;;;5113728;28;20050;-60
2023/09/10 01:42:49;;;;;;;27.85;14.93;;;18.90;99.90;;;;;;5082934;28;20411;-60
2023/09/10 01:45:18;;;;;;;24.25;13.85;;;19.00;99.90;;;;;;5110727;28;20044;-60
2023/09/10 01:47:46;;;;;;;24.05;13.98;;;19.00;99.90;;;;;;5112534;28;20051;-60
2023/09/10 01:50:14;;;;;;;19.35;13.25;;;18.90;99.90;;;;;;5113426;28;20055;-60
2023/09/10 01:52:42;;;;;;;21.08;13.30;;;18.90;99.90;;;;;;5112910;28;20386;-60
2023/09/10 01:55:10;;;;;;;25.85;15.27;;;18.90;99.90;;;;;;5095708;28;20040;-60
2023/09/10 01:57:38;;;;;;;30.55;14.32;;;18.90;99.90;;;;;;5091881;28;20051;-60
2023/09/10 02:00:08;;;;;;;23.65;14.20;;;18.80;99.90;;;;;;5112175;28;20044;-60
2023/09/10 02:02:38;;;;;;;21.40;13.88;;;18.80;99.90;;;;;;5113177;28;20043;-60
2023/09/10 02:05:07;;;;;;;22.92;13.30;;;18.80;99.90;;;;;;5112453;28;20044;-60
2023/09/10 02:07:34;;;;;;;25.80;14.20;;;18.70;99.90;;;;;;5111492;28;20050;-60
2023/09/10 02:10:02;;;;;;;20.00;13.52;;;18.80;99.90;;;;;;5111918;28;20054;-60
2023/09/10 02:12:30;;;;;;;19.80;13.13;;;18.70;99.90;;;;;;5112872;28;20046;-60
2023/09/10 02:14:58;;;;;;;21.10;13.73;;;18.70;99.90;;;;;;5112523;28;20044;-60
2023/09/10 02:17:26;;;;;;;25.63;13.98;;;18.70;99.90;;;;;;5112882;28;20047;-60
2023/09/10 02:19:53;;;;;;;23.73;13.80;;;18.60;99.90;;;;;;5111244;28;20046;-60
2023/09/10 02:22:21;;;;;;;26.80;15.13;;;18.60;99.90;;;;;;5110901;28;20047;-60
2023/09/10 02:24:50;;;;;;;26.65;15.13;;;18.60;99.90;;;;;;5111860;28;20054;-60
2023/09/10 02:27:18;;;;;;;25.13;14.25;;;18.60;99.90;;;;;;5112090;28;20044;-60
2023/09/10 02:29:46;;;;;;;22.90;13.93;;;18.60;99.90;;;;;;5111518;28;20046;-60
2023/09/10 02:32:13;;;;;;;22.98;14.32;;;18.50;99.90;;;;;;5112616;28;20039;-60
2023/09/10 02:34:41;;;;;;;25.20;14.23;;;18.50;99.90;;;;;;5111923;28;20050;-60
2023/09/10 02:37:09;;;;;;;28.75;14.90;;;18.50;99.90;;;;;;5112521;28;20411;-60
2023/09/10 02:39:36;;;;;;;25.60;14.13;;;18.50;99.90;;;;;;5111921;28;20074;-60
2023/09/10 02:42:04;;;;;;;23.48;14.45;;;18.50;99.90;;;;;;5111304;28;20044;-60
2023/09/10 02:44:32;;;;;;;23.38;14.27;;;18.40;99.90;;;;;;5111824;28;20052;-60
2023/09/10 02:46:59;;;;;;;28.50;15.15;;;18.40;99.90;;;;;;5112403;28;20035;-60
2023/09/10 02:49:27;;;;;;;20.60;13.43;;;18.40;99.90;;;;;;5110374;28;20040;-59
2023/09/10 02:51:55;;;;;;;27.10;14.32;;;18.40;99.90;;;;;;5111600;28;20043;-59
2023/09/10 02:54:22;;;;;;;25.17;15.25;;;18.40;99.90;;;;;;5111605;28;20051;-60
2023/09/10 02:56:51;;;;;;;21.15;14.27;;;18.30;99.90;;;;;;5111027;28;20039;-60
2023/09/10 02:59:20;;;;;;;30.48;13.98;;;18.30;99.90;;;;;;5110099;28;20047;-60
2023/09/10 03:01:48;;;;;;;26.17;15.90;;;18.30;99.90;;;;;;5111961;28;20043;-60
2023/09/10 03:04:16;;;;;;;24.95;14.60;;;18.30;99.90;;;;;;5111882;28;20044;-60
2023/09/10 03:06:46;;;;;;;21.70;14.35;;;18.30;99.90;;;;;;5110295;28;20036;-60
2023/09/10 03:09:15;;;;;;;27.60;15.57;;;18.30;99.90;;;;;;5111109;28;20046;-60
2023/09/10 03:11:46;;;;;;;24.27;15.25;;;18.20;99.90;;;;;;5111398;28;20039;-60
2023/09/10 03:14:16;;;;;;;25.17;15.10;;;18.20;99.90;;;;;;5109602;28;20062;-60
2023/09/10 03:16:44;;;;;;;21.02;14.18;;;18.20;99.90;;;;;;5103181;28;20046;-60
2023/09/10 03:19:13;;;;;;;24.23;15.23;;;18.20;99.90;;;;;;5090291;28;20040;-60
2023/09/10 03:21:40;;;;;;;21.40;13.80;;;18.10;99.90;;;;;;5095705;28;20040;-60
2023/09/10 03:24:08;;;;;;;23.98;14.02;;;18.10;99.90;;;;;;5111793;28;20069;-60
2023/09/10 03:26:36;;;;;;;26.83;14.45;;;18.20;99.90;;;;;;5109850;28;20043;-60
2023/09/10 03:29:04;;;;;;;28.17;15.32;;;18.10;99.90;;;;;;5110348;28;20043;-60
2023/09/10 03:31:32;;;;;;;18.55;12.70;;;18.10;99.90;;;;;;5110557;28;20479;-60
2023/09/10 03:33:59;;;;;;;27.08;14.25;;;18.10;99.90;;;;;;5110656;28;20047;-60
2023/09/10 03:36:27;;;;;;;22.67;14.73;;;18.00;99.90;;;;;;5106176;28;20514;-59
2023/09/10 03:38:55;;;;;;;24.80;13.73;;;18.00;99.90;;;;;;5109743;28;20051;-59
2023/09/10 03:41:23;;;;;;;21.60;13.82;;;18.00;99.90;;;;;;5110630;28;20043;-59
2023/09/10 03:43:53;;;;;;;24.27;14.35;;;18.00;99.90;;;;;;5111166;28;20044;-59
2023/09/10 03:46:22;;;;;;;26.00;15.30;;;18.00;99.90;;;;;;5109711;28;20046;-59
2023/09/10 03:48:50;;;;;;;20.27;13.45;;;18.00;99.90;;;;;;5109613;28;20043;-60
2023/09/10 03:51:18;;;;;;;23.88;15.25;;;18.00;99.90;;;;;;5108105;28;20505;-59
2023/09/10 03:53:45;;;;;;;23.13;13.95;;;18.00;99.90;;;;;;5111100;28;20470;-60
2023/09/10 03:56:13;;;;;;;21.88;14.38;;;17.90;99.90;;;;;;5111814;28;20066;-60
2023/09/10 03:58:41;;;;;;;23.30;13.63;;;17.90;99.90;;;;;;5112244;28;20391;-60
2023/09/10 04:01:09;;;;;;;23.70;13.35;;;17.90;99.90;;;;;;5109361;28;20372;-60
2023/09/10 04:03:37;;;;;;;20.98;13.55;;;17.90;99.90;;;;;;5110709;28;20514;-60
2023/09/10 04:06:04;;;;;;;28.23;14.00;;;17.80;99.90;;;;;;5110929;28;20055;-60
2023/09/10 04:08:32;;;;;;;22.42;13.70;;;17.80;99.90;;;;;;5093330;28;20043;-60
2023/09/10 04:11:00;;;;;;;22.92;13.27;;;17.80;99.90;;;;;;5110139;28;20058;-60
2023/09/10 04:13:27;;;;;;;20.13;13.05;;;17.80;99.90;;;;;;5110280;28;20046;-60
2023/09/10 04:15:55;;;;;;;22.48;13.27;;;17.70;99.90;;;;;;5110709;28;20043;-60
2023/09/10 04:18:22;;;;;;;20.70;13.52;;;17.80;99.90;;;;;;5109753;28;20040;-60
2023/09/10 04:20:50;;;;;;;24.20;14.38;;;17.80;99.90;;;;;;5109496;28;20043;-60
2023/09/10 04:23:18;;;;;;;26.60;13.55;;;17.70;99.90;;;;;;5093102;28;20051;-60
2023/09/10 04:25:45;;;;;;;23.63;14.60;;;17.70;99.90;;;;;;5109971;28;20048;-60
2023/09/10 04:28:13;;;;;;;20.38;13.43;;;17.70;99.90;;;;;;5109457;28;20039;-60
2023/09/10 04:30:42;;;;;;;22.80;13.20;;;17.70;99.90;;;;;;5110342;28;20044;-60
2023/09/10 04:33:11;;;;;;;26.95;14.52;;;17.70;99.90;;;;;;5110303;28;20047;-60
2023/09/10 04:35:46;;;;;;;;;;;17.70;99.90;;;;;;5110743;28;20414;-60
2023/09/10 04:38:14;;;;;;;28.67;14.18;;;17.60;99.90;;;;;;5088693;28;19924;-60
2023/09/10 04:40:41;;;;;;;27.25;14.40;;;17.60;99.90;;;;;;5089882;28;20044;-60
2023/09/10 04:43:10;;;;;;;23.77;13.93;;;17.50;99.90;;;;;;5093197;28;20048;-60
2023/09/10 04:45:38;;;;;;;20.35;13.93;;;17.50;99.90;;;;;;5096574;28;20048;-60
2023/09/10 04:48:06;;;;;;;22.73;14.07;;;17.50;99.90;;;;;;5107812;27;20055;-60
2023/09/10 04:50:35;;;;;;;23.30;13.70;;;17.50;99.90;;;;;;5092237;28;20118;-60
2023/09/10 04:53:03;;;;;;;25.63;12.82;;;17.40;99.90;;;;;;5109627;28;20043;-60
2023/09/10 04:55:31;;;;;;;25.50;12.88;;;17.50;99.90;;;;;;5110398;28;20039;-60
2023/09/10 04:57:59;;;;;;;22.73;13.20;;;17.40;99.90;;;;;;5107994;27;20419;-60
2023/09/10 05:00:26;;;;;;;20.27;12.45;;;17.40;99.90;;;;;;5108672;28;20043;-60
2023/09/10 05:02:54;;;;;;;19.25;12.30;;;17.40;99.90;;;;;;5103008;27;20415;-60
2023/09/10 05:05:22;;;;;;;21.70;12.82;;;17.40;99.90;;;;;;5106712;28;20055;-60
2023/09/10 05:07:51;;;;;;;24.60;14.18;;;17.40;99.90;;;;;;5088392;28;20048;-60
2023/09/10 05:10:19;;;;;;;24.40;14.18;;;17.30;99.90;;;;;;5105140;28;20153;-60
2023/09/10 05:12:52;;;;;;;21.35;13.90;;;17.30;99.90;;;;;;5091784;28;20047;-60
2023/09/10 05:15:19;;;;;;;26.65;13.60;;;17.40;99.90;;;;;;5107918;28;20039;-59
2023/09/10 05:17:47;;;;;;;32.83;14.02;;;17.40;99.90;;;;;;5098320;28;20047;-60
2023/09/10 05:20:15;;;;;;;23.85;13.93;;;17.40;99.90;;;;;;5105353;28;20055;-60
2023/09/10 05:22:43;;;;;;;30.52;14.82;;;17.40;99.90;;;;;;5108188;28;20043;-60
2023/09/10 05:25:10;;;;;;;24.60;14.95;;;17.30;99.90;;;;;;5109303;28;20481;-60
2023/09/10 05:27:38;;;;;;;25.30;15.90;;;17.40;99.90;;;;;;5105533;28;20040;-60
2023/09/10 05:30:07;;;;;;;27.00;15.07;;;17.30;99.90;;;;;;5101539;28;20047;-60
2023/09/10 05:32:35;;;;;;;25.75;14.30;;;17.40;99.90;;;;;;5109642;28;20055;-60
2023/09/10 05:35:03;;;;;;;21.50;13.38;;;17.40;99.90;;;;;;5109643;28;20048;-60
2023/09/10 05:37:31;;;;;;;25.88;15.77;;;17.40;99.90;;;;;;5103880;27;20039;-60
2023/09/10 05:39:59;;;;;;;32.58;14.63;;;17.40;99.90;;;;;;5094914;27;20040;-60
2023/09/10 05:42:27;;;;;;;25.00;14.30;;;17.40;99.90;;;;;;5107606;27;20113;-60
2023/09/10 05:44:54;;;;;;;20.45;15.57;;;17.50;99.90;;;;;;5108389;28;20031;-60
2023/09/10 05:47:23;;;;;;;22.33;14.23;;;17.50;99.90;;;;;;5108423;28;20398;-60
2023/09/10 05:49:51;;;;;;;18.38;12.88;;;17.50;99.90;;;;;;5107863;28;20031;-60
2023/09/10 05:52:19;;;;;;;23.13;13.20;;;17.50;99.90;;;;;;5105754;27;20044;-60
2023/09/10 05:54:47;;;;;;;22.92;13.95;;;17.50;99.90;;;;;;5085369;28;20040;-60
2023/09/10 05:57:17;;;;;;;20.30;11.82;;;17.60;99.90;;;;;;5105408;27;20036;-60
2023/09/10 05:59:44;;;;;;;20.52;13.15;;;17.60;99.90;;;;;;5087836;28;20411;-60
2023/09/10 06:02:12;;;;;;;20.08;13.13;;;17.60;99.90;;;;;;5088064;28;20786;-60
2023/09/10 06:04:40;;;;;;;22.52;13.23;;;17.60;99.90;;;;;;5108671;28;20054;-60
2023/09/10 06:07:08;;;;;;;24.88;14.57;;;17.60;99.90;;;;;;5109777;28;20043;-60
2023/09/10 06:09:35;;;;;;;23.90;15.00;;;17.60;99.90;;;;;;5104537;28;20403;-60
2023/09/10 06:12:04;;;;;;;25.75;15.25;;;17.70;99.90;;;;;;5107905;27;20039;-60
2023/09/10 06:14:34;;;;;;;25.27;14.68;;;17.70;99.90;;;;;;5108216;28;20047;-60
2023/09/10 06:17:03;;;;;;;22.88;13.48;;;17.70;99.90;;;;;;5108488;28;20044;-60
2023/09/10 06:19:31;;;;;;;21.08;14.30;;;17.80;99.90;;;;;;5107671;27;20048;-60
2023/09/10 06:21:59;;;;;;;23.60;14.63;;;17.90;99.90;;;;;;5105906;28;20386;-60
2023/09/10 06:24:27;;;;;;;24.08;14.52;;;17.90;99.90;;;;;;5102689;27;20051;-60
2023/09/10 06:26:55;;;;;;;27.90;15.45;;;17.90;99.90;;;;;;5106647;28;20040;-59
2023/09/10 06:29:24;;;;;;;23.85;14.98;;;18.00;99.90;;;;;;5109069;27;20040;-60
2023/09/10 06:31:52;;;;;;;25.42;14.98;;;18.10;99.90;;;;;;5106889;28;20059;-59
2023/09/10 06:34:20;;;;;;;22.02;13.90;;;18.10;99.90;;;;;;5107344;28;20036;-60
2023/09/10 06:36:48;;;;;;;25.38;14.93;;;18.20;99.90;;;;;;5090135;28;20494;-60
2023/09/10 06:39:16;;;;;;;23.65;15.13;;;18.20;99.90;;;;;;5103677;27;20395;-60
2023/09/10 06:41:44;;;;;;;24.50;15.13;;;18.30;99.90;;;;;;5089039;28;20353;-60
2023/09/10 06:44:11;;;;;;;24.75;14.65;;;18.40;99.90;;;;;;5106491;28;20047;-60
2023/09/10 06:46:39;;;;;;;20.85;14.05;;;18.40;99.90;;;;;;5098370;28;20044;-60
2023/09/10 06:49:07;;;;;;;18.20;13.10;;;18.50;99.90;;;;;;5093900;28;20044;-60
2023/09/10 06:51:35;;;;;;;20.10;12.48;;;18.60;99.90;;;;;;5088624;28;20518;-60
2023/09/10 06:54:03;;;;;;;17.30;13.45;;;18.60;99.90;;;;;;5093429;28;20115;-60
2023/09/10 06:56:41;;;;;;;21.83;12.73;;;18.70;99.90;;;;;;5094219;28;20048;-59
2023/09/10 06:59:08;;;;;;;24.88;12.93;;;18.70;99.90;;;;;;5106454;27;20051;-59
2023/09/10 07:01:38;;;;;;;19.05;13.38;;;18.70;99.90;;;;;;5106542;28;20047;-59
2023/09/10 07:04:18;;;;;;;28.00;14.95;;;18.70;99.90;;;;;;5101939;28;20043;-59
2023/09/10 07:06:49;;;;;;;23.65;14.40;;;18.80;99.90;;;;;;5104294;28;20056;-59
2023/09/10 07:09:21;;;;;;;23.42;15.23;;;18.80;99.90;;;;;;5094168;28;20383;-59
2023/09/10 07:11:51;;;;;;;29.35;15.23;;;18.90;99.90;;;;;;5082068;28;20044;-59
2023/09/10 07:14:20;;;;;;;31.77;17.38;;;18.90;99.90;;;;;;5104452;28;20059;-59
2023/09/10 07:16:48;;;;;;;23.40;15.77;;;18.90;99.90;;;;;;5089035;28;20040;-59
2023/09/10 07:19:16;;;;;;;22.35;15.18;;;19.00;99.90;;;;;;5101673;28;20307;-59
2023/09/10 07:21:45;;;;;;;24.73;15.38;;;19.00;99.90;;;;;;5093722;28;20048;-59
2023/09/10 07:24:12;;;;;;;30.27;16.02;;;19.10;99.90;;;;;;5096356;27;20045;-60
2023/09/10 07:26:40;;;;;;;30.92;16.85;;;19.20;99.90;;;;;;5106138;28;20050;-59
2023/09/10 07:29:15;;;;;;;22.52;15.48;;;19.20;99.90;;;;;;5104218;28;20039;-59
2023/09/10 07:31:43;;;;;;;21.83;15.57;;;19.30;99.90;;;;;;5099722;28;20044;-59
2023/09/10 07:34:11;;;;;;;25.45;16.38;;;19.40;99.90;;;;;;5092517;28;20506;-59
2023/09/10 07:36:40;;;;;;;25.25;17.33;;;19.50;99.90;;;;;;5103969;28;20054;-59
2023/09/10 07:39:08;;;;;;;25.13;17.23;;;19.60;99.90;;;;;;5104177;28;20048;-60
2023/09/10 07:41:36;;;;;;;25.40;17.08;;;19.70;99.90;;;;;;5086524;28;20044;-59
2023/09/10 07:44:03;;;;;;;23.92;17.13;;;19.70;99.90;;;;;;5100252;28;20056;-60
2023/09/10 07:46:33;;;;;;;27.77;17.60;;;19.80;99.90;;;;;;5094201;28;20036;-59
2023/09/10 07:49:01;;;;;;;26.67;17.60;;;19.90;99.90;;;;;;5114398;28;20043;-59
2023/09/10 07:51:29;;;;;;;29.15;18.33;;;20.00;99.90;;;;;;5094871;28;20495;-59
2023/09/10 07:53:56;;;;;;;30.48;18.17;;;20.10;99.90;;;;;;5099975;28;20557;-59
2023/09/10 07:56:24;;;;;;;28.80;18.35;;;20.20;99.90;;;;;;5092508;28;20506;-59
2023/09/10 07:58:52;;;;;;;23.05;17.60;;;20.30;99.90;;;;;;5101012;28;20055;-59
2023/09/10 08:01:20;;;;;;;24.55;17.88;;;20.40;99.90;;;;;;5104291;28;20039;-59
2023/09/10 08:03:48;;;;;;;25.27;17.33;;;20.40;99.90;;;;;;5104951;28;20052;-60
2023/09/10 08:06:16;;;;;;;27.25;17.45;;;20.50;99.90;;;;;;5089684;28;20044;-59
2023/09/10 08:08:43;;;;;;;30.25;17.33;;;20.50;99.90;;;;;;5088241;28;20036;-60
2023/09/10 08:11:11;;;;;;;30.15;18.15;;;20.50;99.90;;;;;;5095624;28;20510;-60
2023/09/10 08:13:42;;;;;;;25.60;17.52;;;20.60;99.90;;;;;;5099702;28;20043;-59
2023/09/10 08:16:14;;;;;;;25.33;17.70;;;20.60;99.90;;;;;;5087337;28;20040;-60
2023/09/10 08:18:44;;;;;;;26.92;17.73;;;20.70;99.90;;;;;;5109580;28;20063;-60
2023/09/10 08:21:12;;;;;;;26.58;18.65;;;20.60;99.90;;;;;;5107463;28;20406;-60
2023/09/10 08:23:40;;;;;;;29.27;19.17;;;20.60;99.90;;;;;;5104168;27;20062;-59
2023/09/10 08:26:08;;;;;;;26.45;19.63;;;20.70;99.90;;;;;;5094292;28;20056;-60
2023/09/10 08:28:36;;;;;;;31.63;19.63;;;20.70;99.90;;;;;;5108356;28;20039;-59
2023/09/10 08:31:04;;;;;;;31.65;21.63;;;20.70;99.90;;;;;;5105389;28;20126;-59
2023/09/10 08:33:32;;;;;;;29.58;20.05;;;20.80;99.90;;;;;;5101372;28;20059;-59
2023/09/10 08:35:59;;;;;;;28.13;19.98;;;20.80;99.90;;;;;;5106856;28;20051;-59
2023/09/10 08:38:29;;;;;;;28.47;19.73;;;20.80;99.90;;;;;;5098841;28;20058;-60
2023/09/10 08:40:59;;;;;;;32.63;21.33;;;20.80;99.90;;;;;;5102729;28;20977;-59
2023/09/10 08:43:34;;;;;;;30.88;22.05;;;20.80;99.90;;;;;;5105664;28;20044;-60
2023/09/10 08:46:06;;;;;;;28.98;21.13;;;20.80;99.90;;;;;;5108834;28;20044;-59
2023/09/10 08:48:35;;;;;;;33.22;21.50;;;20.80;99.90;;;;;;5096125;28;20047;-59
2023/09/10 08:51:03;;;;;;;31.40;21.85;;;20.80;99.90;;;;;;5091051;28;20044;-60
2023/09/10 08:53:31;;;;;;;32.45;21.65;;;20.80;99.90;;;;;;5108732;27;20043;-60
2023/09/10 08:56:00;;;;;;;29.85;19.23;;;20.90;99.90;;;;;;5095248;27;20039;-59
2023/09/10 08:58:29;;;;;;;31.13;20.65;;;21.00;99.90;;;;;;5098707;28;20495;-59
2023/09/10 09:00:58;;;;;;;30.35;19.05;;;21.10;99.90;;;;;;5105355;28;20048;-60
2023/09/10 09:03:28;;;;;;;23.88;15.57;;;21.20;99.90;;;;;;5097057;28;20043;-59
2023/09/10 09:06:04;;;;;;;26.05;17.95;;;21.30;99.90;;;;;;5107455;28;20483;-59
2023/09/10 09:08:36;;;;;;;26.50;16.02;;;21.50;99.90;;;;;;5106701;28;20048;-60
2023/09/10 09:11:06;;;;;;;22.85;14.45;;;21.70;99.90;;;;;;5101769;28;20040;-59
2023/09/10 09:13:42;;;;;;;24.52;15.40;;;21.90;99.90;;;;;;5104071;28;20043;-60
2023/09/10 09:16:11;;;;;;;18.83;12.65;;;22.10;99.90;;;;;;5107551;28;20490;-59
2023/09/10 09:18:40;;;;;;;18.48;12.55;;;22.30;99.90;;;;;;5089683;28;20706;-59
2023/09/10 09:21:11;;;;;;;;;;;22.50;99.90;;;;;;5093049;28;20506;-59
2023/09/10 09:24:10;;;;;;;21.15;12.23;;;22.60;99.90;;;;;;5099294;28;19924;-60
2023/09/10 09:26:41;;;;;;;20.27;12.80;;;22.70;99.90;;;;;;5091665;28;20517;-60
2023/09/10 09:29:10;;;;;;;24.90;13.38;;;22.80;99.90;;;;;;5108611;28;20044;-60
2023/09/10 09:31:38;;;;;;;20.42;12.18;;;22.90;99.90;;;;;;5092739;28;20044;-59
2023/09/10 09:34:06;;;;;;;25.60;13.13;;;22.90;99.90;;;;;;5109380;27;20429;-59
2023/09/10 09:36:36;;;;;;;20.60;13.23;;;22.90;99.90;;;;;;5110775;28;20051;-60
2023/09/10 09:39:07;;;;;;;21.02;13.10;;;22.90;99.90;;;;;;5109269;27;20086;-60
2023/09/10 09:41:41;;;;;;;23.33;12.70;;;22.90;99.90;;;;;;5089688;28;20044;-60
2023/09/10 09:44:15;;;;;;;;;;;22.90;99.90;;;;;;5097669;28;20055;-60
2023/09/10 09:46:45;;;;;;;24.17;13.52;;;22.90;99.90;;;;;;5100227;28;19927;-60
2023/09/10 09:49:12;;;;;;;22.25;12.60;;;22.80;99.90;;;;;;5105513;27;20051;-60
2023/09/10 09:51:40;;;;;;;22.05;12.55;;;22.80;99.90;;;;;;5094695;27;20047;-60
2023/09/10 09:54:08;;;;;;;20.98;12.77;;;22.80;99.90;;;;;;5092166;27;20502;-60
2023/09/10 09:56:37;;;;;;;20.60;12.95;;;22.90;99.90;;;;;;5098177;27;20444;-60
2023/09/10 09:59:06;;;;;;;20.23;12.95;;;23.00;99.90;;;;;;5087179;28;20040;-60
2023/09/10 10:01:39;;;;;;;21.30;13.32;;;23.00;99.90;;;;;;5096549;27;20070;-59
2023/09/10 10:04:07;;;;;;;23.27;14.98;;;22.90;99.90;;;;;;5074813;28;20044;-59
2023/09/10 10:06:36;;;;;;;27.38;15.05;;;23.00;99.90;;;;;;5094214;28;20039;-59
2023/09/10 10:09:18;;;;;;;25.48;14.15;;;22.90;99.90;;;;;;5091449;28;20040;-59
2023/09/10 10:11:47;;;;;;;22.00;14.55;;;22.80;99.90;;;;;;5104890;28;20526;-60
2023/09/10 10:14:16;;;;;;;23.45;13.90;;;22.80;99.90;;;;;;5093231;28;20044;-60
2023/09/10 10:16:45;;;;;;;19.85;13.55;;;22.80;99.90;;;;;;5089101;28;20395;-61
2023/09/10 10:19:14;;;;;;;24.10;14.60;;;22.80;99.90;;;;;;5095752;28;20051;-60
2023/09/10 10:21:42;;;;;;;22.52;15.30;;;22.80;99.90;;;;;;5109452;28;20043;-60
2023/09/10 10:24:12;;;;;;;22.27;14.52;;;23.00;99.90;;;;;;5108613;28;20044;-61
2023/09/10 10:26:40;;;;;;;;;;;23.10;99.90;;;;;;5096725;27;20059;-62
2023/09/10 10:29:09;;;;;;;23.95;13.23;;;23.30;99.90;;;;;;5106609;28;19919;-61
2023/09/10 10:31:41;;;;;;;21.00;13.73;;;23.50;99.90;;;;;;5109040;28;20056;-61
2023/09/10 10:34:14;;;;;;;21.63;13.38;;;23.80;99.90;;;;;;5108429;28;20781;-61
2023/09/10 10:37:24;;;;;;;23.42;13.30;;;24.00;99.90;;;;;;5109420;28;20051;-60
2023/09/10 10:40:17;;;;;;;20.85;12.98;;;24.20;99.90;;;;;;5105570;28;20051;-61
2023/09/10 10:42:54;;;;;;;22.58;13.00;;;24.30;99.90;;;;;;5094063;28;20048;-62
2023/09/10 10:45:25;;;;;;;22.80;12.02;;;24.60;99.90;;;;;;5102105;28;20514;-60
2023/09/10 10:47:53;;;;;;;15.60;11.07;;;24.90;99.90;;;;;;5095043;28;20039;-61
2023/09/10 10:50:35;;;;;;;20.27;11.30;;;25.10;99.90;;;;;;5108069;28;20043;-61
2023/09/10 10:53:18;;;;;;;17.00;11.65;;;25.30;99.90;;;;;;5107978;28;20050;-61
2023/09/10 10:55:53;;;;;;;17.15;10.23;;;25.50;99.90;;;;;;5099589;27;20047;-61
2023/09/10 10:58:25;;;;;;;19.55;11.35;;;25.50;99.90;;;;;;5092312;28;20043;-60
2023/09/10 11:00:57;;;;;;;20.60;11.45;;;25.60;99.90;;;;;;5089749;28;20036;-61
2023/09/10 11:03:25;;;;;;;17.85;10.90;;;25.50;99.90;;;;;;5102759;28;20051;-60
2023/09/10 11:05:53;;;;;;;17.65;11.40;;;25.50;99.90;;;;;;5107150;28;20054;-60
2023/09/10 11:08:31;;;;;;;19.70;10.45;;;25.40;99.90;;;;;;5105435;28;20047;-60
2023/09/10 11:11:00;;;;;;;18.38;10.55;;;25.30;99.90;;;;;;5089689;28;20044;-61
2023/09/10 11:13:27;;;;;;;17.67;11.02;;;25.30;99.90;;;;;;5092162;28;20048;-61
2023/09/10 11:16:04;;;;;;;19.27;10.90;;;25.30;99.90;;;;;;5089393;28;20044;-61
2023/09/10 11:18:36;;;;;;;19.25;10.57;;;25.20;99.90;;;;;;5098962;28;20051;-61
2023/09/10 11:21:06;;;;;;;21.10;11.40;;;25.20;99.90;;;;;;5105715;28;20475;-60
2023/09/10 11:23:35;;;;;;;;;;;25.20;99.90;;;;;;5098203;28;20044;-60
2023/09/10 11:26:14;;;;;;;18.50;11.20;;;25.20;99.90;;;;;;5092327;28;19924;-62
2023/09/10 11:28:47;;;;;;;22.20;12.13;;;25.20;99.90;;;;;;5103065;28;20406;-61
2023/09/10 11:31:33;;;;;;;19.58;11.38;;;25.10;99.90;;;;;;5108591;28;20045;-62
2023/09/10 11:34:27;;;;;;;19.60;13.20;;;25.10;99.90;;;;;;5108072;28;20359;-63
2023/09/10 11:37:02;;;;;;;19.05;11.60;;;25.10;99.90;;;;;;5107458;28;20044;-62
2023/09/10 11:39:32;;;;;;;19.85;10.80;;;25.10;99.90;;;;;;5107995;28;20044;-64
2023/09/10 11:42:02;;;;;;;19.30;11.77;;;25.10;99.90;;;;;;5091612;28;20560;-62
2023/09/10 11:44:29;;;;;;;23.08;11.70;;;25.20;99.90;;;;;;5101131;28;20044;-61
2023/09/10 11:46:57;;;;;;;18.25;10.93;;;25.30;99.90;;;;;;5093749;28;20055;-60
2023/09/10 11:49:26;;;;;;;23.13;11.43;;;25.30;99.90;;;;;;5099051;28;20036;-60
2023/09/10 11:51:57;;;;;;;19.47;10.97;;;25.30;99.90;;;;;;5089950;28;20044;-59
2023/09/10 11:54:26;;;;;;;16.35;11.40;;;25.30;99.90;;;;;;5102492;28;20380;-60
2023/09/10 11:56:56;;;;;;;18.58;11.27;;;25.30;99.90;;;;;;5105519;27;20497;-60
2023/09/10 11:59:30;;;;;;;18.27;11.35;;;25.30;99.90;;;;;;5109084;28;20795;-60
2023/09/10 12:01:59;;;;;;;16.55;9.98;;;25.40;99.90;;;;;;5101346;28;20040;-60
2023/09/10 12:04:31;;;;;;;21.15;12.13;;;25.40;99.90;;;;;;5108219;28;20612;-60
2023/09/10 12:07:00;;;;;;;18.88;10.85;;;25.50;99.90;;;;;;5099156;28;20561;-60
2023/09/10 12:09:29;;;;;;;19.08;11.35;;;25.50;99.90;;;;;;5096836;28;20431;-60
2023/09/10 12:12:30;;;;;;;26.83;11.57;;;25.50;99.90;;;;;;5106852;27;20043;-60
2023/09/10 12:14:58;;;;;;;20.63;10.88;;;25.40;99.90;;;;;;5089971;28;20048;-60
2023/09/10 12:17:26;;;;;;;23.20;11.38;;;25.50;99.90;;;;;;5094197;28;20039;-60
2023/09/10 12:19:54;;;;;;;19.02;11.63;;;25.40;99.90;;;;;;5104309;28;20040;-60
2023/09/10 12:22:22;;;;;;;21.45;11.88;;;25.40;99.90;;;;;;5102285;28;20047;-60
2023/09/10 12:24:50;;;;;;;20.75;11.82;;;25.30;99.90;;;;;;5095703;28;20048;-60
2023/09/10 12:27:18;;;;;;;20.23;12.38;;;25.30;99.90;;;;;;5107071;28;20054;-60
2023/09/10 12:29:45;;;;;;;26.27;13.20;;;25.20;99.90;;;;;;5107184;28;20422;-60
2023/09/10 12:32:14;;;;;;;17.38;11.82;;;25.10;99.90;;;;;;5110862;28;20441;-61
2023/09/10 12:34:42;;;;;;;19.55;11.63;;;25.00;99.90;;;;;;5111614;28;20398;-60
2023/09/10 12:37:15;;;;;;;17.92;11.73;;;24.90;99.90;;;;;;5111843;28;20047;-61
2023/09/10 12:39:44;;;;;;;19.63;11.57;;;24.90;99.90;;;;;;5110562;28;20040;-60
2023/09/10 12:42:12;;;;;;;21.77;12.02;;;24.90;99.90;;;;;;5099151;28;20495;-61